createdAt,value
2023-03-28T00:01:39.871Z,9.93
2023-03-28T00:04:11.816Z,9.98
2023-03-28T00:06:41.989Z,10.02
2023-03-28T00:09:11.184Z,10.03
2023-03-28T00:11:39.284Z,10.00
2023-03-28T00:14:08.823Z,9.95
2023-03-28T00:16:39.598Z,9.96
2023-03-28T00:19:11.888Z,9.80
2023-03-28T00:21:43.127Z,9.73
2023-03-28T00:24:14.030Z,9.55
2023-03-28T00:26:44.029Z,9.35
2023-03-28T00:29:21.588Z,9.25
2023-03-28T00:31:51.436Z,9.09
2023-03-28T00:34:19.393Z,8.99
2023-03-28T00:36:47.268Z,8.95
2023-03-28T00:39:15.568Z,8.94
2023-03-28T00:41:45.302Z,9.01
2023-03-28T00:44:41.851Z,9.09
2023-03-28T00:47:18.364Z,9.11
2023-03-28T00:49:50.057Z,9.16
2023-03-28T00:52:18.864Z,9.31
2023-03-28T00:54:47.068Z,9.34
2023-03-28T00:57:16.797Z,9.36
2023-03-28T00:59:46.135Z,9.33
2023-03-28T01:02:14.279Z,9.28
2023-03-28T01:05:06.278Z,9.14
2023-03-28T01:07:42.652Z,9.02
2023-03-28T01:10:12.262Z,8.85
2023-03-28T01:12:42.392Z,8.86
2023-03-28T01:15:11.088Z,8.85
2023-03-28T01:17:54.456Z,8.82
2023-03-28T01:20:47.077Z,8.78
2023-03-28T01:23:38.917Z,8.64
2023-03-28T01:26:44.354Z,8.74
2023-03-28T01:29:39.897Z,8.77
2023-03-28T01:32:30.078Z,8.76
2023-03-28T01:35:22.055Z,8.80
2023-03-28T01:38:12.488Z,8.79
2023-03-28T01:40:54.795Z,8.82
2023-03-28T01:43:25.975Z,8.81
2023-03-28T01:46:08.339Z,8.74
2023-03-28T01:49:28.665Z,8.67
2023-03-28T01:52:11.316Z,8.75
2023-03-28T01:55:14.826Z,8.70
2023-03-28T01:57:57.954Z,8.64
2023-03-28T02:00:46.318Z,8.58
2023-03-28T02:03:33.351Z,8.66
2023-03-28T02:06:09.550Z,8.69
2023-03-28T02:08:41.814Z,8.70
2023-03-28T02:11:39.926Z,8.82
2023-03-28T02:14:19.229Z,8.82
2023-03-28T02:16:55.602Z,8.86
2023-03-28T02:19:48.510Z,8.79
2023-03-28T02:22:35.745Z,8.72
2023-03-28T02:25:11.170Z,8.65
2023-03-28T02:28:09.242Z,8.63
2023-03-28T02:30:55.658Z,8.56
2023-03-28T02:33:39.535Z,8.48
2023-03-28T02:36:26.393Z,8.42
2023-03-28T02:39:39.100Z,8.49
2023-03-28T02:42:35.389Z,8.15
2023-03-28T02:45:29.186Z,8.12
2023-03-28T02:48:38.120Z,8.06
2023-03-28T02:51:23.848Z,8.12
2023-03-28T02:53:51.715Z,7.93
2023-03-28T02:56:38.642Z,8.02
2023-03-28T02:59:28.663Z,8.04
2023-03-28T03:01:57.094Z,8.10
2023-03-28T03:04:25.157Z,8.35
2023-03-28T03:06:53.176Z,8.31
2023-03-28T03:09:21.236Z,8.29
2023-03-28T03:11:49.416Z,8.20
2023-03-28T03:14:17.555Z,8.06
2023-03-28T03:16:49.099Z,7.96
2023-03-28T03:19:19.647Z,7.97
2023-03-28T03:21:47.599Z,7.85
2023-03-28T03:24:16.088Z,7.71
2023-03-28T03:26:45.764Z,7.70
2023-03-28T03:29:17.635Z,7.81
2023-03-28T03:31:46.566Z,7.78
2023-03-28T03:34:21.050Z,7.85
2023-03-28T03:36:55.120Z,7.63
2023-03-28T03:39:23.732Z,7.58
2023-03-28T03:41:51.640Z,7.63
2023-03-28T03:44:19.555Z,7.68
2023-03-28T03:46:47.504Z,7.74
2023-03-28T03:49:15.520Z,7.79
2023-03-28T03:51:43.686Z,7.91
2023-03-28T03:54:12.312Z,7.83
2023-03-28T03:56:40.904Z,7.69
2023-03-28T03:59:09.041Z,7.61
2023-03-28T04:01:40.228Z,7.50
2023-03-28T04:04:27.641Z,7.88
2023-03-28T04:07:08.958Z,7.76
2023-03-28T04:09:37.010Z,7.63
2023-03-28T04:12:08.304Z,7.65
2023-03-28T04:14:46.894Z,7.65
2023-03-28T04:17:35.458Z,7.61
2023-03-28T04:20:13.460Z,7.59
2023-03-28T04:23:01.131Z,7.40
2023-03-28T04:25:31.838Z,7.53
2023-03-28T04:28:10.567Z,7.54
2023-03-28T04:30:46.858Z,7.56
2023-03-28T04:33:34.136Z,7.70
2023-03-28T04:36:06.138Z,7.52
2023-03-28T04:38:37.779Z,7.71
2023-03-28T04:41:25.993Z,7.50
2023-03-28T04:44:23.379Z,7.29
2023-03-28T04:46:59.573Z,7.16
2023-03-28T04:49:27.534Z,7.30
2023-03-28T04:51:55.858Z,7.23
2023-03-28T04:54:23.771Z,7.16
2023-03-28T04:57:10.080Z,7.20
2023-03-28T04:59:46.551Z,7.15
2023-03-28T05:02:23.106Z,7.12
2023-03-28T05:05:07.804Z,7.22
2023-03-28T05:07:36.996Z,7.23
2023-03-28T05:10:06.730Z,7.24
2023-03-28T05:12:39.218Z,7.52
2023-03-28T05:15:07.780Z,7.64
2023-03-28T05:17:47.612Z,7.48
2023-03-28T05:20:36.718Z,7.31
2023-03-28T05:23:08.946Z,7.37
2023-03-28T05:25:40.273Z,7.25
2023-03-28T05:28:08.435Z,7.36
2023-03-28T05:30:43.917Z,7.40
2023-03-28T05:33:12.019Z,7.52
2023-03-28T05:35:40.651Z,7.53
2023-03-28T05:38:08.854Z,7.81
2023-03-28T05:40:37.597Z,7.81
2023-03-28T05:43:05.637Z,7.90
2023-03-28T05:45:34.686Z,7.61
2023-03-28T05:48:08.082Z,7.83
2023-03-28T05:50:37.513Z,7.99
2023-03-28T05:53:08.587Z,8.03
2023-03-28T05:55:36.484Z,7.93
2023-03-28T05:58:05.488Z,8.09
2023-03-28T06:00:38.119Z,8.08
2023-03-28T06:03:08.117Z,8.18
2023-03-28T06:05:42.385Z,8.16
2023-03-28T06:08:19.364Z,8.13
2023-03-28T06:10:47.257Z,8.03
2023-03-28T06:13:26.498Z,8.28
2023-03-28T06:15:54.937Z,8.30
2023-03-28T06:18:31.802Z,8.46
2023-03-28T06:20:59.963Z,8.54
2023-03-28T06:23:28.156Z,8.71
2023-03-28T06:25:55.995Z,8.72
2023-03-28T06:28:24.694Z,8.78
2023-03-28T06:31:13.390Z,8.95
2023-03-28T06:33:43.407Z,9.00
2023-03-28T06:36:12.443Z,9.04
2023-03-28T06:38:40.542Z,9.11
2023-03-28T06:41:09.002Z,9.21
2023-03-28T06:43:38.100Z,9.38
2023-03-28T06:46:08.640Z,9.50
2023-03-28T06:48:40.066Z,9.66
2023-03-28T06:51:27.409Z,9.67
2023-03-28T06:53:55.708Z,9.78
2023-03-28T06:56:28.858Z,9.85
2023-03-28T06:58:59.083Z,9.88
2023-03-28T07:01:29.199Z,9.99
2023-03-28T07:04:10.565Z,10.14
2023-03-28T07:06:39.081Z,10.08
2023-03-28T07:09:07.182Z,10.31
2023-03-28T07:11:41.536Z,10.36
2023-03-28T07:14:09.660Z,10.48
2023-03-28T07:16:38.001Z,10.63
2023-03-28T07:19:06.166Z,10.78
2023-03-28T07:21:37.375Z,10.95
2023-03-28T07:24:06.253Z,11.06
2023-03-28T07:26:46.491Z,11.09
2023-03-28T07:29:14.410Z,11.15
2023-03-28T07:31:42.890Z,11.20
2023-03-28T07:34:10.951Z,11.27
2023-03-28T07:36:39.985Z,11.30
2023-03-28T07:39:13.817Z,11.42
2023-03-28T07:41:41.733Z,11.47
2023-03-28T07:44:09.901Z,11.65
2023-03-28T07:46:38.255Z,11.88
2023-03-28T07:49:06.895Z,12.08
2023-03-28T07:51:35.795Z,12.22
2023-03-28T07:54:05.381Z,12.30
2023-03-28T07:56:33.322Z,12.26
2023-03-28T07:59:19.925Z,12.30
2023-03-28T08:01:51.736Z,12.46
2023-03-28T08:04:20.842Z,12.42
2023-03-28T08:07:02.563Z,12.45
2023-03-28T08:09:30.442Z,12.61
2023-03-28T08:12:12.704Z,12.81
2023-03-28T08:14:40.532Z,12.84
2023-03-28T08:17:10.076Z,12.82
2023-03-28T08:19:38.321Z,12.91
2023-03-28T08:22:12.550Z,13.08
2023-03-28T08:25:07.912Z,13.16
2023-03-28T08:27:37.379Z,13.24
2023-03-28T08:30:10.960Z,13.18
2023-03-28T08:32:49.804Z,13.11
2023-03-28T08:35:17.872Z,13.16
2023-03-28T08:37:47.477Z,13.30
2023-03-28T08:40:19.296Z,13.44
2023-03-28T08:43:08.803Z,13.50
2023-03-28T08:45:53.812Z,13.55
2023-03-28T08:48:32.009Z,13.60
2023-03-28T08:51:07.981Z,13.62
2023-03-28T08:53:44.031Z,13.63
2023-03-28T08:56:15.771Z,13.46
2023-03-28T08:58:58.249Z,13.51
2023-03-28T09:01:29.889Z,13.81
2023-03-28T09:03:57.970Z,14.03
2023-03-28T09:06:41.249Z,14.31
2023-03-28T09:09:32.547Z,14.25
2023-03-28T09:12:23.311Z,14.41
2023-03-28T09:15:16.579Z,14.20
2023-03-28T09:18:17.418Z,14.11
2023-03-28T09:21:03.776Z,14.36
2023-03-28T09:23:35.831Z,14.60
2023-03-28T09:26:40.034Z,14.45
2023-03-28T09:29:18.118Z,14.29
2023-03-28T09:31:49.691Z,14.20
2023-03-28T09:34:27.876Z,14.26
2023-03-28T09:37:13.181Z,14.52
2023-03-28T09:39:52.541Z,14.56
2023-03-28T09:42:30.605Z,15.06
2023-03-28T09:45:37.345Z,15.31
2023-03-28T09:48:28.721Z,14.96
2023-03-28T09:51:02.966Z,14.83
2023-03-28T09:53:34.546Z,15.25
2023-03-28T09:56:26.630Z,15.60
2023-03-28T09:58:59.568Z,15.46
2023-03-28T10:01:48.424Z,15.11
2023-03-28T10:04:53.510Z,15.22
2023-03-28T10:07:48.016Z,15.05
2023-03-28T10:10:34.354Z,14.96
2023-03-28T10:13:10.094Z,14.73
2023-03-28T10:15:43.458Z,15.13
2023-03-28T10:18:21.868Z,15.09
2023-03-28T10:21:08.603Z,15.04
2023-03-28T10:23:37.101Z,15.12
2023-03-28T10:26:06.402Z,15.34
2023-03-28T10:28:37.658Z,15.81
2023-03-28T10:31:07.892Z,15.95
2023-03-28T10:33:46.557Z,16.02
2023-03-28T10:36:43.840Z,16.20
2023-03-28T10:39:23.934Z,16.53
2023-03-28T10:42:06.629Z,16.54
2023-03-28T10:45:30.682Z,16.40
2023-03-28T10:48:01.710Z,16.57
2023-03-28T10:50:50.085Z,16.83
2023-03-28T10:53:47.895Z,16.98
2023-03-28T10:56:28.875Z,16.57
2023-03-28T10:59:14.792Z,16.82
2023-03-28T11:02:07.537Z,17.06
2023-03-28T11:05:00.131Z,17.51
2023-03-28T11:07:52.579Z,17.20
2023-03-28T11:10:59.892Z,17.39
2023-03-28T11:13:55.248Z,17.65
2023-03-28T11:17:03.863Z,17.49
2023-03-28T11:21:12.771Z,17.70
2023-03-28T11:23:46.303Z,17.89
2023-03-28T11:26:48.575Z,18.54
2023-03-28T11:30:01.424Z,19.02
2023-03-28T11:32:59.997Z,19.04
2023-03-28T11:35:42.791Z,18.78
2023-03-28T11:38:27.999Z,18.49
2023-03-28T11:41:22.137Z,18.36
2023-03-28T11:44:37.570Z,18.62
2023-03-28T11:47:18.895Z,19.23
2023-03-28T11:50:15.290Z,19.89
2023-03-28T11:53:11.356Z,20.51
2023-03-28T11:55:52.223Z,20.85
2023-03-28T11:58:47.353Z,20.21
2023-03-28T12:01:23.288Z,20.21
2023-03-28T12:04:00.428Z,20.59
2023-03-28T12:07:02.356Z,20.94
2023-03-28T12:09:45.426Z,20.96
2023-03-28T12:12:18.833Z,20.99
2023-03-28T12:15:05.964Z,20.42
2023-03-28T12:18:02.857Z,20.19
2023-03-28T12:21:03.412Z,20.30
2023-03-28T12:23:45.151Z,20.21
2023-03-28T12:27:09.422Z,20.69
2023-03-28T12:30:07.571Z,21.56
2023-03-28T12:32:59.922Z,22.24
2023-03-28T12:35:48.617Z,21.94
2023-03-28T12:38:29.491Z,22.45
2023-03-28T12:41:26.953Z,23.51
2023-03-28T12:44:05.439Z,24.08
2023-03-28T12:46:48.809Z,24.68
2023-03-28T12:49:36.494Z,24.83
2023-03-28T12:52:17.479Z,25.41
2023-03-28T12:54:57.736Z,24.74
2023-03-28T12:57:41.115Z,23.97
2023-03-28T13:00:23.958Z,24.27
2023-03-28T13:03:48.411Z,24.32
2023-03-28T13:06:49.713Z,24.93
2023-03-28T13:09:31.346Z,25.38
2023-03-28T13:12:03.493Z,25.82
2023-03-28T13:14:41.477Z,26.47
2023-03-28T13:17:27.194Z,28.03
2023-03-28T13:20:08.101Z,28.73
2023-03-28T13:22:49.320Z,29.57
2023-03-28T13:25:21.333Z,28.93
2023-03-28T13:27:51.391Z,28.78
2023-03-28T13:30:32.880Z,28.41
2023-03-28T13:33:08.147Z,28.89
2023-03-28T13:35:36.265Z,28.54
2023-03-28T13:38:29.738Z,29.71
2023-03-28T13:41:09.968Z,30.04
2023-03-28T13:43:56.366Z,29.72
2023-03-28T13:46:53.865Z,29.78
2023-03-28T13:49:31.129Z,30.91
2023-03-28T13:52:13.347Z,32.73
2023-03-28T13:54:41.493Z,33.39
2023-03-28T13:57:17.848Z,32.59
2023-03-28T13:59:59.874Z,32.97
2023-03-28T14:02:46.674Z,32.78
2023-03-28T14:05:26.500Z,32.64
2023-03-28T14:08:01.747Z,32.67
2023-03-28T14:10:34.608Z,31.19
2023-03-28T14:13:19.063Z,30.38
2023-03-28T14:15:48.209Z,28.60
2023-03-28T14:18:22.067Z,29.32
2023-03-28T14:20:50.119Z,27.23
2023-03-28T14:23:29.777Z,26.61
2023-03-28T14:26:02.508Z,26.91
2023-03-28T14:28:30.930Z,27.44
2023-03-28T14:30:59.346Z,26.34
2023-03-28T14:33:37.581Z,25.14
2023-03-28T14:36:06.321Z,24.56
2023-03-28T14:38:38.541Z,23.77
2023-03-28T14:41:19.611Z,22.62
2023-03-28T14:43:52.474Z,22.93
2023-03-28T14:46:30.251Z,21.46
2023-03-28T14:49:01.543Z,21.53
2023-03-28T14:51:40.272Z,21.64
2023-03-28T14:54:14.592Z,22.10
2023-03-28T14:56:45.645Z,21.36
2023-03-28T14:59:18.163Z,20.63
2023-03-28T15:01:51.803Z,20.21
2023-03-28T15:04:23.144Z,20.71
2023-03-28T15:06:56.536Z,21.03
2023-03-28T15:09:33.453Z,20.43
2023-03-28T15:12:07.096Z,20.51
2023-03-28T15:14:41.692Z,20.06
2023-03-28T15:17:19.580Z,19.67
2023-03-28T15:19:53.160Z,19.89
2023-03-28T15:22:28.135Z,20.01
2023-03-28T15:24:58.265Z,20.19
2023-03-28T15:27:33.941Z,20.20
2023-03-28T15:30:13.477Z,20.12
2023-03-28T15:32:41.674Z,20.36
2023-03-28T15:35:30.915Z,20.77
2023-03-28T15:38:08.276Z,20.48
2023-03-28T15:40:44.753Z,20.55
2023-03-28T15:43:33.508Z,20.71
2023-03-28T15:46:04.462Z,20.14
2023-03-28T15:48:36.749Z,20.04
2023-03-28T15:51:19.021Z,19.78
2023-03-28T15:53:49.172Z,19.41
2023-03-28T15:56:22.071Z,19.29
2023-03-28T15:58:50.082Z,18.93
2023-03-28T16:01:32.688Z,18.74
2023-03-28T16:04:22.400Z,18.73
2023-03-28T16:07:14.890Z,18.62
2023-03-28T16:09:43.486Z,18.59
2023-03-28T16:12:15.782Z,18.63
2023-03-28T16:14:53.088Z,18.69
2023-03-28T16:17:49.251Z,18.30
2023-03-28T16:20:28.143Z,18.32
2023-03-28T16:23:00.148Z,18.42
2023-03-28T16:25:29.267Z,18.44
2023-03-28T16:27:58.122Z,18.20
2023-03-28T16:30:34.123Z,18.27
2023-03-28T16:33:02.092Z,18.19
2023-03-28T16:35:30.129Z,18.45
2023-03-28T16:37:58.308Z,18.52
2023-03-28T16:40:26.397Z,18.23
2023-03-28T16:42:54.831Z,18.22
2023-03-28T16:45:23.251Z,18.15
2023-03-28T16:47:51.414Z,18.26
2023-03-28T16:50:19.630Z,18.26
2023-03-28T16:52:47.535Z,18.10
2023-03-28T16:55:18.211Z,18.10
2023-03-28T16:57:46.606Z,17.91
2023-03-28T17:00:18.169Z,17.67
2023-03-28T17:02:47.749Z,17.56
2023-03-28T17:05:16.999Z,17.35
2023-03-28T17:07:45.035Z,17.27
2023-03-28T17:10:13.098Z,17.36
2023-03-28T17:12:41.525Z,17.24
2023-03-28T17:15:09.981Z,17.20
2023-03-28T17:17:38.000Z,17.29
2023-03-28T17:20:06.815Z,17.24
2023-03-28T17:22:34.848Z,17.14
2023-03-28T17:25:02.981Z,17.11
2023-03-28T17:27:31.034Z,17.09
2023-03-28T17:29:59.064Z,16.97
2023-03-28T17:32:27.346Z,16.86
2023-03-28T17:34:55.472Z,16.78
2023-03-28T17:37:24.547Z,16.67
2023-03-28T17:39:52.713Z,16.57
2023-03-28T17:42:20.852Z,16.47
2023-03-28T17:44:48.876Z,16.48
2023-03-28T17:47:17.186Z,16.45
2023-03-28T17:49:45.151Z,16.31
2023-03-28T17:52:13.166Z,16.23
2023-03-28T17:54:41.344Z,16.13
2023-03-28T17:57:09.824Z,16.20
2023-03-28T17:59:37.862Z,16.33
2023-03-28T18:02:05.892Z,16.28
2023-03-28T18:04:34.068Z,16.03
2023-03-28T18:07:16.780Z,15.91
2023-03-28T18:09:46.060Z,15.89
2023-03-28T18:12:14.132Z,16.00
2023-03-28T18:14:42.251Z,15.86
2023-03-28T18:17:10.425Z,15.72
2023-03-28T18:19:38.489Z,15.54
2023-03-28T18:22:06.596Z,15.53
2023-03-28T18:24:34.696Z,15.46
2023-03-28T18:27:02.734Z,15.25
2023-03-28T18:29:31.332Z,15.12
2023-03-28T18:31:59.379Z,15.01
2023-03-28T18:34:27.547Z,14.80
2023-03-28T18:36:55.885Z,14.89
2023-03-28T18:39:23.938Z,14.85
2023-03-28T18:41:52.220Z,14.90
2023-03-28T18:44:20.156Z,14.69
2023-03-28T18:46:55.088Z,14.67
2023-03-28T18:49:23.077Z,14.58
2023-03-28T18:51:51.127Z,14.44
2023-03-28T18:54:20.155Z,14.41
2023-03-28T18:56:48.603Z,14.35
2023-03-28T18:59:17.821Z,14.18
2023-03-28T19:01:51.753Z,14.21
2023-03-28T19:04:23.350Z,14.00
2023-03-28T19:06:52.876Z,14.18
2023-03-28T19:09:21.450Z,14.16
2023-03-28T19:11:53.399Z,14.18
2023-03-28T19:14:21.388Z,14.20
2023-03-28T19:16:49.559Z,14.21
2023-03-28T19:19:17.657Z,14.05
2023-03-28T19:21:45.687Z,14.30
2023-03-28T19:24:13.712Z,14.15
2023-03-28T19:26:41.737Z,14.01
2023-03-28T19:29:09.784Z,14.20
2023-03-28T19:31:37.862Z,14.25
2023-03-28T19:34:08.057Z,14.13
2023-03-28T19:36:36.229Z,14.09
2023-03-28T19:39:04.368Z,14.07
2023-03-28T19:41:32.341Z,14.01
2023-03-28T19:44:00.767Z,14.00
2023-03-28T19:46:36.446Z,13.85
2023-03-28T19:49:07.164Z,13.72
2023-03-28T19:51:35.981Z,13.91
2023-03-28T19:54:05.031Z,13.79
2023-03-28T19:56:33.603Z,14.02
2023-03-28T19:59:01.941Z,13.87
2023-03-28T20:01:30.273Z,13.73
2023-03-28T20:03:58.387Z,13.96
2023-03-28T20:06:26.479Z,13.80
2023-03-28T20:08:54.766Z,13.77
2023-03-28T20:11:22.820Z,13.91
2023-03-28T20:13:51.586Z,13.98
2023-03-28T20:16:20.291Z,13.78
2023-03-28T20:18:48.652Z,13.60
2023-03-28T20:21:17.232Z,13.44
2023-03-28T20:23:45.349Z,13.62
2023-03-28T20:26:18.973Z,13.55
2023-03-28T20:28:50.408Z,13.66
2023-03-28T20:31:19.561Z,13.67
2023-03-28T20:33:47.580Z,13.49
2023-03-28T20:36:15.681Z,13.34
2023-03-28T20:38:43.925Z,13.29
2023-03-28T20:41:14.225Z,13.25
2023-03-28T20:43:47.859Z,13.48
2023-03-28T20:46:20.615Z,13.24
2023-03-28T20:48:53.223Z,13.08
2023-03-28T20:51:23.289Z,13.12
2023-03-28T20:53:59.243Z,12.95
2023-03-28T20:56:29.658Z,12.89
2023-03-28T20:58:59.071Z,12.96
2023-03-28T21:01:30.307Z,12.82
2023-03-28T21:04:00.419Z,12.75
2023-03-28T21:06:33.670Z,12.87
2023-03-28T21:09:05.030Z,12.80
2023-03-28T21:11:35.330Z,12.56
2023-03-28T21:14:04.822Z,12.47
2023-03-28T21:16:33.366Z,12.70
2023-03-28T21:19:02.827Z,12.56
2023-03-28T21:21:33.541Z,12.75
2023-03-28T21:24:02.364Z,12.72
2023-03-28T21:26:31.626Z,12.54
2023-03-28T21:28:59.814Z,12.40
2023-03-28T21:31:29.717Z,12.16
2023-03-28T21:33:59.262Z,12.13
2023-03-28T21:36:28.134Z,12.05
2023-03-28T21:38:56.994Z,12.15
2023-03-28T21:41:27.576Z,12.45
2023-03-28T21:43:56.276Z,12.35
2023-03-28T21:46:24.417Z,12.10
2023-03-28T21:48:52.495Z,12.23
2023-03-28T21:51:20.493Z,12.04
2023-03-28T21:53:48.484Z,12.24
2023-03-28T21:56:16.965Z,12.34
2023-03-28T21:58:45.038Z,12.29
2023-03-28T22:01:15.056Z,12.22
2023-03-28T22:03:43.259Z,12.15
2023-03-28T22:06:11.750Z,12.01
2023-03-28T22:08:41.239Z,11.99
2023-03-28T22:11:17.780Z,12.05
2023-03-28T22:13:47.721Z,12.04
2023-03-28T22:16:15.830Z,11.97
2023-03-28T22:18:50.218Z,11.96
2023-03-28T22:21:18.447Z,11.82
2023-03-28T22:23:47.792Z,11.65
2023-03-28T22:26:16.363Z,11.67
2023-03-28T22:28:44.417Z,11.65
2023-03-28T22:31:13.059Z,11.63
2023-03-28T22:33:40.967Z,11.75
2023-03-28T22:36:09.761Z,11.78
2023-03-28T22:38:37.863Z,11.75
2023-03-28T22:41:07.921Z,11.81
2023-03-28T22:43:36.506Z,11.68
2023-03-28T22:46:08.392Z,11.79
2023-03-28T22:48:38.392Z,11.59
2023-03-28T22:51:12.098Z,11.56
2023-03-28T22:53:40.512Z,11.72
2023-03-28T22:56:09.157Z,11.71
2023-03-28T22:58:37.293Z,11.64
2023-03-28T23:01:06.016Z,11.72
2023-03-28T23:03:34.094Z,11.57
2023-03-28T23:06:06.312Z,11.48
2023-03-28T23:08:34.383Z,11.53
2023-03-28T23:11:02.505Z,11.40
2023-03-28T23:13:30.712Z,11.32
2023-03-28T23:15:58.715Z,11.51
2023-03-28T23:18:26.734Z,11.40
2023-03-28T23:20:54.622Z,11.20
2023-03-28T23:23:23.424Z,11.07
2023-03-28T23:25:51.661Z,11.07
2023-03-28T23:28:20.396Z,11.06
2023-03-28T23:30:48.712Z,10.94
2023-03-28T23:33:18.741Z,11.06
2023-03-28T23:35:48.604Z,11.38
2023-03-28T23:38:17.795Z,11.34
2023-03-28T23:40:46.811Z,11.00
2023-03-28T23:43:15.039Z,10.94
2023-03-28T23:45:44.061Z,10.91
2023-03-28T23:48:12.200Z,11.23
2023-03-28T23:50:40.464Z,11.26
2023-03-28T23:53:08.627Z,11.24
2023-03-28T23:55:37.162Z,11.13
2023-03-28T23:58:05.202Z,11.13
